createdAt,value
2023-02-09T00:01:41.721Z,-23062.31
2023-02-09T00:03:44.791Z,-23057.84
2023-02-09T00:05:47.549Z,-23058.00
2023-02-09T00:07:50.262Z,-23059.59
2023-02-09T00:09:53.582Z,-23054.31
2023-02-09T00:12:13.768Z,-23057.66
2023-02-09T00:14:21.728Z,-23058.00
2023-02-09T00:16:27.751Z,-23057.03
2023-02-09T00:18:32.287Z,-23058.00
2023-02-09T00:20:35.028Z,-23060.72
2023-02-09T00:22:37.660Z,-23060.06
2023-02-09T00:24:40.546Z,-23059.13
2023-02-09T00:26:43.665Z,-23058.16
2023-02-09T00:28:46.353Z,-23058.94
2023-02-09T00:30:49.084Z,-23060.72
2023-02-09T00:32:53.190Z,-23059.75
2023-02-09T00:34:55.761Z,-23059.91
2023-02-09T00:36:58.453Z,-23059.13
2023-02-09T00:39:01.572Z,-23062.81
2023-02-09T00:41:04.910Z,-23057.84
2023-02-09T00:43:08.604Z,-23057.84
2023-02-09T00:45:11.274Z,-23056.72
2023-02-09T00:47:13.928Z,-23057.50
2023-02-09T00:49:17.960Z,-23057.19
2023-02-09T00:51:20.701Z,-23055.59
2023-02-09T00:53:23.979Z,-23054.47
2023-02-09T00:55:26.651Z,-23055.91
2023-02-09T00:57:29.326Z,-23054.31
2023-02-09T00:59:34.468Z,-23052.72
2023-02-09T01:01:38.739Z,-23054.16
2023-02-09T01:03:41.704Z,-23052.53
2023-02-09T01:05:45.752Z,-23052.38
2023-02-09T01:07:48.423Z,-23049.81
2023-02-09T01:09:51.046Z,-23052.38
2023-02-09T01:11:53.915Z,-23046.94
2023-02-09T01:13:58.074Z,-23045.66
2023-02-09T01:16:00.696Z,-23044.69
2023-02-09T01:18:03.354Z,-23044.69
2023-02-09T01:20:07.598Z,-23046.13
2023-02-09T01:22:12.357Z,-23046.94
2023-02-09T01:24:16.352Z,-23045.34
2023-02-09T01:26:19.676Z,-23042.78
2023-02-09T01:28:22.485Z,-23044.69
2023-02-09T01:30:25.302Z,-23043.41
2023-02-09T01:32:27.963Z,-23045.00
2023-02-09T01:34:30.691Z,-23043.41
2023-02-09T01:36:34.567Z,-23044.06
2023-02-09T01:38:38.607Z,-23042.94
2023-02-09T01:40:41.302Z,-23046.63
2023-02-09T01:42:43.949Z,-23044.38
2023-02-09T01:45:15.566Z,-23044.53
2023-02-09T01:47:20.351Z,-23044.69
2023-02-09T01:49:26.294Z,-23040.03
2023-02-09T01:51:29.862Z,-23039.25
2023-02-09T01:53:33.859Z,-23038.44
2023-02-09T01:55:41.793Z,-23036.53
2023-02-09T01:57:48.861Z,-23038.75
2023-02-09T01:59:55.570Z,-23038.44
2023-02-09T02:01:58.233Z,-23039.72
2023-02-09T02:04:00.908Z,-23041.97
2023-02-09T02:06:09.952Z,-23040.03
2023-02-09T02:08:20.299Z,-23042.44
2023-02-09T02:10:23.110Z,-23041.97
2023-02-09T02:12:27.275Z,-23037.31
2023-02-09T02:14:32.237Z,-23039.56
2023-02-09T02:16:49.681Z,-23037.66
2023-02-09T02:19:15.314Z,-23037.00
2023-02-09T02:21:56.802Z,-23037.97
2023-02-09T02:24:17.856Z,-23039.91
2023-02-09T02:26:45.063Z,-23038.44
2023-02-09T02:29:12.911Z,-23037.31
2023-02-09T02:31:51.376Z,-23039.41
2023-02-09T02:34:02.370Z,-23035.25
2023-02-09T02:36:10.941Z,-23034.44
2023-02-09T02:38:20.847Z,-23029.94
2023-02-09T02:40:34.035Z,-23027.38
2023-02-09T02:42:48.928Z,-23025.16
2023-02-09T02:45:00.476Z,-23026.44
2023-02-09T02:47:09.990Z,-23026.91
2023-02-09T02:49:19.347Z,-23026.59
2023-02-09T02:51:26.471Z,-23028.19
2023-02-09T02:53:33.027Z,-23029.16
2023-02-09T02:55:39.078Z,-23032.19
2023-02-09T02:57:46.588Z,-23032.50
2023-02-09T02:59:54.632Z,-23031.25
2023-02-09T03:02:01.363Z,-23030.91
2023-02-09T03:04:08.029Z,-23030.91
2023-02-09T03:06:12.660Z,-23030.44
2023-02-09T03:08:15.572Z,-23030.75
2023-02-09T03:10:30.033Z,-23028.81
2023-02-09T03:12:42.797Z,-23028.34
2023-02-09T03:14:58.778Z,-23025.16
2023-02-09T03:20:28.256Z,-23027.72
2023-02-09T03:22:36.375Z,-23026.75
2023-02-09T03:24:46.235Z,-23028.69
2023-02-09T03:26:52.858Z,-23029.00
2023-02-09T03:28:58.711Z,-23032.19
2023-02-09T03:31:01.941Z,-23030.91
2023-02-09T03:33:06.157Z,-23028.03
2023-02-09T03:35:12.410Z,-23030.75
2023-02-09T03:37:16.589Z,-23028.34
2023-02-09T03:39:19.237Z,-23027.72
2023-02-09T03:41:22.110Z,-23027.88
2023-02-09T03:43:45.231Z,-23030.28
2023-02-09T03:45:47.895Z,-23023.22
2023-02-09T03:47:50.558Z,-23023.88
2023-02-09T03:49:53.235Z,-23028.03
2023-02-09T03:51:56.124Z,-23022.91
2023-02-09T03:54:00.061Z,-23023.53
2023-02-09T03:56:02.750Z,-23026.75
2023-02-09T03:58:05.442Z,-23021.78
2023-02-09T04:00:09.692Z,-23025.78
2023-02-09T04:02:12.378Z,-23024.97
2023-02-09T04:04:15.265Z,-23020.66
2023-02-09T04:06:17.935Z,-23017.78
2023-02-09T04:08:20.529Z,-23016.50
2023-02-09T04:10:24.437Z,-23016.50
2023-02-09T04:12:27.043Z,-23017.44
2023-02-09T04:14:29.684Z,-23019.38
2023-02-09T04:16:32.819Z,-23016.97
2023-02-09T04:18:35.584Z,-23020.19
2023-02-09T04:20:38.235Z,-23020.97
2023-02-09T04:22:40.992Z,-23020.00
2023-02-09T04:24:43.573Z,-23020.66
2023-02-09T04:26:47.586Z,-23016.50
2023-02-09T04:28:50.581Z,-23020.00
2023-02-09T04:30:54.814Z,-23013.59
2023-02-09T04:32:57.468Z,-23017.13
2023-02-09T04:35:00.091Z,-23018.41
2023-02-09T04:37:02.719Z,-23016.81
2023-02-09T04:39:05.437Z,-23017.44
2023-02-09T04:41:08.350Z,-23017.28
2023-02-09T04:43:12.468Z,-23018.09
2023-02-09T04:45:15.147Z,-23014.25
2023-02-09T04:47:17.820Z,-23016.50
2023-02-09T04:49:20.430Z,-23013.59
2023-02-09T04:51:23.061Z,-23010.72
2023-02-09T04:53:26.755Z,-23013.94
2023-02-09T04:55:29.431Z,-23012.16
2023-02-09T04:57:46.366Z,-23011.34
2023-02-09T04:59:50.303Z,-23005.44
2023-02-09T05:01:53.018Z,-23004.31
2023-02-09T05:03:55.743Z,-23003.97
2023-02-09T05:06:00.329Z,-23004.63
2023-02-09T05:08:02.901Z,-23009.75
2023-02-09T05:10:06.328Z,-23011.69
2023-02-09T05:12:10.090Z,-23010.72
2023-02-09T05:14:12.822Z,-23010.41
2023-02-09T05:16:18.412Z,-23009.44
2023-02-09T05:18:22.597Z,-23007.19
2023-02-09T05:20:25.253Z,-23007.50
2023-02-09T05:22:28.266Z,-23008.47
2023-02-09T05:24:31.025Z,-23009.75
2023-02-09T05:26:33.619Z,-23003.34
2023-02-09T05:28:36.297Z,-23002.38
2023-02-09T05:30:38.912Z,-22998.84
2023-02-09T05:32:42.925Z,-23002.53
2023-02-09T05:34:45.573Z,-22997.41
2023-02-09T05:36:48.703Z,-22995.66
2023-02-09T05:38:51.387Z,-22999.16
2023-02-09T05:40:54.080Z,-22999.00
2023-02-09T05:42:55.757Z,-22996.13
2023-02-09T05:44:58.453Z,-22999.50
2023-02-09T05:47:01.097Z,-22993.88
2023-02-09T05:49:05.064Z,-22995.31
2023-02-09T05:51:07.930Z,-22993.41
2023-02-09T05:53:10.779Z,-22992.44
2023-02-09T05:55:13.372Z,-22991.31
2023-02-09T05:57:16.063Z,-22991.16
2023-02-09T05:59:19.177Z,-22990.19
2023-02-09T06:01:22.139Z,-22994.03
2023-02-09T06:03:24.815Z,-22993.72
2023-02-09T06:05:30.009Z,-22997.25
2023-02-09T06:07:32.724Z,-22995.97
2023-02-09T06:09:35.368Z,-22995.66
2023-02-09T06:11:38.238Z,-22989.88
2023-02-09T06:13:40.949Z,-22984.72
2023-02-09T06:15:43.631Z,-22986.97
2023-02-09T06:17:46.408Z,-22989.22
2023-02-09T06:19:49.028Z,-22991.47
2023-02-09T06:21:53.046Z,-22994.69
2023-02-09T06:23:55.722Z,-22988.91
2023-02-09T06:25:58.402Z,-22990.03
2023-02-09T06:28:02.374Z,-22994.69
2023-02-09T06:30:05.950Z,-22990.19
2023-02-09T06:32:08.718Z,-22984.25
2023-02-09T06:34:11.513Z,-22983.13
2023-02-09T06:36:14.164Z,-22986.34
2023-02-09T06:38:18.192Z,-22984.91
2023-02-09T06:40:21.051Z,-22983.13
2023-02-09T06:42:23.900Z,-22983.13
2023-02-09T06:44:26.512Z,-22987.47
2023-02-09T06:46:29.562Z,-22984.72
2023-02-09T06:48:32.247Z,-22981.22
2023-02-09T06:50:35.449Z,-22979.94
2023-02-09T06:52:38.354Z,-22979.44
2023-02-09T06:54:43.881Z,-22980.41
2023-02-09T06:56:47.827Z,-22982.50
2023-02-09T06:58:50.448Z,-22985.06
2023-02-09T07:00:53.164Z,-22989.88
2023-02-09T07:02:55.996Z,-22985.38
2023-02-09T07:04:58.748Z,-22982.66
2023-02-09T07:07:01.328Z,-22984.09
2023-02-09T07:09:03.981Z,-22982.50
2023-02-09T07:11:10.264Z,-22981.53
2023-02-09T07:13:12.872Z,-22980.56
2023-02-09T07:15:15.920Z,-22982.34
2023-02-09T07:17:18.576Z,-22987.16
2023-02-09T07:19:21.205Z,-22991.16
2023-02-09T07:21:23.932Z,-22991.31
2023-02-09T07:23:27.039Z,-22993.72
2023-02-09T07:25:29.644Z,-22996.75
2023-02-09T07:27:33.625Z,-22999.50
2023-02-09T07:29:36.291Z,-22996.28
2023-02-09T07:31:38.982Z,-23003.03
2023-02-09T07:33:41.873Z,-23002.06
2023-02-09T07:35:44.434Z,-23005.44
2023-02-09T07:37:47.034Z,-23005.44
2023-02-09T07:39:49.889Z,-23009.44
2023-02-09T07:41:52.632Z,-23006.88
2023-02-09T07:43:56.932Z,-23010.41
2023-02-09T07:46:03.792Z,-23012.16
2023-02-09T07:48:06.428Z,-23011.53
2023-02-09T07:50:09.600Z,-23016.00
2023-02-09T07:52:12.726Z,-23019.06
2023-02-09T07:54:16.019Z,-23014.88
2023-02-09T07:56:19.103Z,-23019.06
2023-02-09T07:58:22.187Z,-23022.75
2023-02-09T08:00:26.526Z,-23025.16
2023-02-09T08:02:35.050Z,-23030.28
2023-02-09T08:04:37.848Z,-23041.50
2023-02-09T08:06:44.991Z,-23039.56
2023-02-09T08:08:47.944Z,-23045.97
2023-02-09T08:10:51.290Z,-23051.09
2023-02-09T08:13:03.775Z,-23044.22
2023-02-09T08:15:07.325Z,-23056.22
2023-02-09T08:17:25.844Z,-23079.13
2023-02-09T08:19:29.594Z,-23083.13
2023-02-09T08:21:36.895Z,-23065.19
2023-02-09T08:23:44.873Z,-23057.19
2023-02-09T08:25:51.319Z,-23065.84
2023-02-09T08:27:54.790Z,-23077.38
2023-02-09T08:29:59.047Z,-23096.09
2023-02-09T08:32:01.762Z,-23099.47
2023-02-09T08:34:05.754Z,-23101.53
2023-02-09T08:36:08.864Z,-23090.97
2023-02-09T08:38:11.549Z,-23090.34
2023-02-09T08:40:15.695Z,-23104.75
2023-02-09T08:42:18.464Z,-23098.97
2023-02-09T08:44:21.112Z,-23088.91
2023-02-09T08:46:23.861Z,-23115.16
2023-02-09T08:48:26.608Z,-23122.50
2023-02-09T08:50:30.610Z,-23122.81
2023-02-09T08:52:33.237Z,-23172.06
2023-02-09T08:54:36.174Z,-23155.75
2023-02-09T08:56:39.163Z,-23126.03
2023-02-09T08:58:41.830Z,-23118.34
2023-02-09T09:00:44.705Z,-23139.78
2023-02-09T09:02:47.417Z,-23142.16
2023-02-09T09:04:50.310Z,-23150.31
2023-02-09T09:06:55.440Z,-23136.25
2023-02-09T09:08:58.244Z,-23144.41
2023-02-09T09:11:01.348Z,-23142.50
2023-02-09T09:13:04.223Z,-23132.41
2023-02-09T09:15:07.457Z,-23151.75
2023-02-09T09:17:10.574Z,-23175.25
2023-02-09T09:19:13.574Z,-23214.06
2023-02-09T09:21:18.775Z,-23242.63
2023-02-09T09:23:23.397Z,-23192.66
2023-02-09T09:25:26.522Z,-23186.59
2023-02-09T09:27:29.429Z,-23255.69
2023-02-09T09:29:34.138Z,-23274.50
2023-02-09T09:31:38.020Z,-23306.06
2023-02-09T09:33:41.764Z,-23278.97
2023-02-09T09:35:44.824Z,-23231.28
2023-02-09T09:37:47.602Z,-23285.97
2023-02-09T09:39:52.547Z,-23301.59
2023-02-09T09:41:59.665Z,-23323.91
2023-02-09T09:44:04.114Z,-23294.59
2023-02-09T09:46:08.841Z,-23261.13
2023-02-09T09:48:23.059Z,-23275.47
2023-02-09T09:50:28.447Z,-23220.28
2023-02-09T09:52:33.589Z,-23277.69
2023-02-09T09:54:38.070Z,-23346.81
2023-02-09T09:56:42.134Z,-23222.19
2023-02-09T09:58:45.717Z,-23244.22
2023-02-09T10:00:49.897Z,-23269.09
2023-02-09T10:02:53.376Z,-23278.66
2023-02-09T10:05:00.447Z,-23264.16
2023-02-09T10:07:15.408Z,-23221.56
2023-02-09T10:09:29.360Z,-23192.19
2023-02-09T10:11:39.441Z,-23193.16
2023-02-09T10:13:48.916Z,-23180.84
2023-02-09T10:15:53.131Z,-23196.97
2023-02-09T10:17:56.453Z,-23184.34
2023-02-09T10:20:03.750Z,-23192.19
2023-02-09T10:22:13.011Z,-23192.81
2023-02-09T10:24:21.569Z,-23196.03
2023-02-09T10:26:26.824Z,-23225.72
2023-02-09T10:28:32.056Z,-23209.75
2023-02-09T10:30:36.151Z,-23231.78
2023-02-09T10:32:44.198Z,-23248.38
2023-02-09T10:34:49.578Z,-23220.59
2023-02-09T10:36:54.676Z,-23226.81
2023-02-09T10:39:16.500Z,-23220.28
2023-02-09T10:41:20.066Z,-23218.53
2023-02-09T10:43:26.993Z,-23195.06
2023-02-09T10:45:33.083Z,-23193.31
2023-02-09T10:47:37.071Z,-23205.44
2023-02-09T10:49:40.870Z,-23250.91
2023-02-09T10:51:43.559Z,-23238.00
2023-02-09T10:54:01.390Z,-23249.00
2023-02-09T10:56:07.174Z,-23228.91
2023-02-09T10:58:22.625Z,-23213.41
2023-02-09T11:00:32.964Z,-23239.28
2023-02-09T11:02:41.136Z,-23236.56
2023-02-09T11:04:44.906Z,-23239.44
2023-02-09T11:06:52.001Z,-23231.13
2023-02-09T11:09:00.732Z,-23224.75
2023-02-09T11:11:06.821Z,-23228.59
2023-02-09T11:13:20.963Z,-23213.91
2023-02-09T11:15:27.986Z,-23221.09
2023-02-09T11:17:36.687Z,-23221.72
2023-02-09T11:20:09.812Z,-23213.41
2023-02-09T11:22:14.158Z,-23219.81
2023-02-09T11:24:26.337Z,-23223.31
2023-02-09T11:26:39.074Z,-23228.59
2023-02-09T11:28:49.315Z,-23220.59
2023-02-09T11:31:06.382Z,-23229.38
2023-02-09T11:33:16.563Z,-23231.47
2023-02-09T11:35:23.216Z,-23234.16
2023-02-09T11:37:36.081Z,-23237.84
2023-02-09T11:39:44.196Z,-23228.75
2023-02-09T11:42:09.606Z,-23230.03
2023-02-09T11:44:19.192Z,-23226.50
2023-02-09T11:46:25.400Z,-23228.59
2023-02-09T11:48:31.389Z,-23227.47
2023-02-09T11:50:41.978Z,-23229.53
2023-02-09T11:52:52.267Z,-23240.88
2023-02-09T11:55:01.338Z,-23247.72
2023-02-09T11:57:16.221Z,-23244.38
2023-02-09T11:59:28.302Z,-23217.41
2023-02-09T12:01:42.165Z,-23232.41
2023-02-09T12:03:54.724Z,-23234.00
2023-02-09T12:05:58.767Z,-23238.78
2023-02-09T12:08:18.764Z,-23252.50
2023-02-09T12:10:30.810Z,-23255.69
2023-02-09T12:12:41.464Z,-23251.41
2023-02-09T12:15:01.579Z,-23238.31
2023-02-09T12:17:12.747Z,-23262.41
2023-02-09T12:19:26.986Z,-23255.06
2023-02-09T12:21:33.833Z,-23258.25
2023-02-09T12:23:37.807Z,-23266.22
2023-02-09T12:25:55.268Z,-23267.19
2023-02-09T12:28:37.730Z,-23260.16
2023-02-09T12:31:01.253Z,-23262.41
2023-02-09T12:33:17.445Z,-23261.91
2023-02-09T12:35:29.268Z,-23260.66
2023-02-09T12:37:33.253Z,-23273.22
2023-02-09T12:39:36.103Z,-23268.78
2023-02-09T12:42:15.386Z,-23250.28
2023-02-09T12:44:38.627Z,-23267.81
2023-02-09T12:46:51.765Z,-23271.66
2023-02-09T12:49:09.842Z,-23277.84
2023-02-09T12:51:40.117Z,-23278.81
2023-02-09T12:53:48.951Z,-23284.72
2023-02-09T12:56:03.804Z,-23290.13
2023-02-09T12:58:40.573Z,-23339.81
2023-02-09T13:00:54.731Z,-23331.22
2023-02-09T13:02:57.636Z,-23345.53
2023-02-09T13:05:04.791Z,-23330.75
2023-02-09T13:07:15.125Z,-23365.25
2023-02-09T13:09:27.280Z,-23315.59
2023-02-09T13:11:38.701Z,-23346.00
2023-02-09T13:13:48.940Z,-23351.41
2023-02-09T13:16:09.069Z,-23337.09
2023-02-09T13:18:20.968Z,-23357.00
2023-02-09T13:20:37.213Z,-23307.31
2023-02-09T13:23:01.659Z,-23308.91
2023-02-09T13:25:18.541Z,-23351.41
2023-02-09T13:27:23.292Z,-23352.38
2023-02-09T13:29:28.515Z,-23364.00
2023-02-09T13:31:36.408Z,-23302.56
2023-02-09T13:33:50.218Z,-23321.34
2023-02-09T13:36:08.936Z,-23353.81
2023-02-09T13:38:17.644Z,-23330.75
2023-02-09T13:40:25.384Z,-23367.34
2023-02-09T13:42:30.174Z,-23347.91
2023-02-09T13:44:35.302Z,-23325.31
2023-02-09T13:46:39.391Z,-23326.44
2023-02-09T13:48:42.120Z,-23311.94
2023-02-09T13:50:48.559Z,-23317.53
2023-02-09T13:52:51.843Z,-23341.72
2023-02-09T13:54:55.299Z,-23316.25
2023-02-09T13:57:01.719Z,-23316.25
2023-02-09T13:59:05.304Z,-23314.34
2023-02-09T14:01:14.156Z,-23295.06
2023-02-09T14:03:21.184Z,-23294.75
2023-02-09T14:05:33.160Z,-23291.09
2023-02-09T14:07:38.033Z,-23272.59
2023-02-09T14:09:46.771Z,-23286.31
2023-02-09T14:11:53.539Z,-23280.72
2023-02-09T14:14:02.496Z,-23288.53
2023-02-09T14:16:07.179Z,-23272.91
2023-02-09T14:18:29.421Z,-23280.09
2023-02-09T14:20:32.143Z,-23276.09
2023-02-09T14:22:36.445Z,-23275.47
2023-02-09T14:24:44.536Z,-23265.91
2023-02-09T14:26:50.953Z,-23267.00
2023-02-09T14:29:06.820Z,-23274.19
2023-02-09T14:31:19.693Z,-23267.19
2023-02-09T14:33:25.382Z,-23262.41
2023-02-09T14:35:29.951Z,-23258.25
2023-02-09T14:37:32.577Z,-23258.88
2023-02-09T14:39:35.201Z,-23258.56
2023-02-09T14:41:38.089Z,-23267.00
2023-02-09T14:43:40.923Z,-23260.16
2023-02-09T14:45:47.673Z,-23261.75
2023-02-09T14:47:50.826Z,-23262.56
2023-02-09T14:49:53.468Z,-23273.56
2023-02-09T14:52:04.362Z,-23277.38
2023-02-09T14:54:19.333Z,-23267.19
2023-02-09T14:56:28.291Z,-23273.72
2023-02-09T14:58:33.250Z,-23263.03
2023-02-09T15:00:35.921Z,-23265.09
2023-02-09T15:02:40.028Z,-23261.13
2023-02-09T15:04:42.703Z,-23264.47
2023-02-09T15:06:48.224Z,-23255.53
2023-02-09T15:08:51.017Z,-23264.16
2023-02-09T15:10:56.236Z,-23264.00
2023-02-09T15:12:59.513Z,-23257.78
2023-02-09T15:15:03.275Z,-23266.22
2023-02-09T15:17:14.851Z,-23265.59
2023-02-09T15:19:22.186Z,-23263.50
2023-02-09T15:21:25.054Z,-23261.28
2023-02-09T15:23:27.867Z,-23258.41
2023-02-09T15:25:30.808Z,-23252.50
2023-02-09T15:27:35.274Z,-23251.72
2023-02-09T15:29:38.011Z,-23250.28
2023-02-09T15:31:41.171Z,-23253.47
2023-02-09T15:33:44.077Z,-23252.03
2023-02-09T15:35:49.045Z,-23254.09
2023-02-09T15:37:55.085Z,-23249.00
2023-02-09T15:40:02.662Z,-23248.53
2023-02-09T15:42:31.322Z,-23246.78
2023-02-09T15:44:51.600Z,-23245.19
2023-02-09T15:47:12.013Z,-23243.25
2023-02-09T15:49:14.670Z,-23242.31
2023-02-09T15:51:18.746Z,-23241.81
2023-02-09T15:53:22.024Z,-23240.06
2023-02-09T15:55:26.370Z,-23238.94
2023-02-09T15:57:29.222Z,-23237.19
2023-02-09T15:59:31.900Z,-23233.69
2023-02-09T16:01:35.287Z,-23236.56
2023-02-09T16:03:38.027Z,-23234.31
2023-02-09T16:05:40.684Z,-23232.09
2023-02-09T16:07:45.047Z,-23231.94
2023-02-09T16:09:47.748Z,-23233.38
2023-02-09T16:11:50.570Z,-23230.81
2023-02-09T16:13:53.613Z,-23230.81
2023-02-09T16:16:05.133Z,-23229.22
2023-02-09T16:18:14.587Z,-23227.31
2023-02-09T16:20:17.958Z,-23224.75
2023-02-09T16:22:23.416Z,-23222.69
2023-02-09T16:24:32.396Z,-23221.56
2023-02-09T16:26:35.745Z,-23221.25
2023-02-09T16:28:38.465Z,-23219.97
2023-02-09T16:30:50.549Z,-23217.09
2023-02-09T16:32:53.488Z,-23218.69
2023-02-09T16:35:04.496Z,-23218.06
2023-02-09T16:37:16.213Z,-23215.50
2023-02-09T16:39:20.829Z,-23212.31
2023-02-09T16:41:42.356Z,-23209.75
2023-02-09T16:43:45.264Z,-23207.50
2023-02-09T16:46:02.434Z,-23199.06
2023-02-09T16:48:06.382Z,-23200.16
2023-02-09T16:50:22.585Z,-23200.50
2023-02-09T16:52:26.047Z,-23201.44
2023-02-09T16:54:30.048Z,-23201.75
2023-02-09T16:56:35.918Z,-23200.50
2023-02-09T16:58:40.185Z,-23200.66
2023-02-09T17:00:45.292Z,-23199.53
2023-02-09T17:02:52.651Z,-23196.03
2023-02-09T17:04:55.426Z,-23194.09
2023-02-09T17:06:58.067Z,-23191.88
2023-02-09T17:09:00.842Z,-23191.72
2023-02-09T17:11:05.687Z,-23189.94
2023-02-09T17:13:10.842Z,-23190.75
2023-02-09T17:15:28.965Z,-23187.22
2023-02-09T17:17:32.585Z,-23187.41
2023-02-09T17:19:46.922Z,-23187.72
2023-02-09T17:21:50.344Z,-23186.44
2023-02-09T17:23:53.619Z,-23187.41
2023-02-09T17:25:56.395Z,-23186.44
2023-02-09T17:27:59.237Z,-23184.53
2023-02-09T17:30:04.023Z,-23184.34
2023-02-09T17:32:06.977Z,-23183.09
2023-02-09T17:34:14.125Z,-23182.75
2023-02-09T17:36:32.733Z,-23181.00
2023-02-09T17:38:37.236Z,-23183.09
2023-02-09T17:40:39.976Z,-23182.28
2023-02-09T17:42:43.088Z,-23180.84
2023-02-09T17:44:46.864Z,-23181.81
2023-02-09T17:46:51.140Z,-23181.31
2023-02-09T17:48:53.823Z,-23178.75
2023-02-09T17:51:00.164Z,-23179.09
2023-02-09T17:53:02.804Z,-23177.50
2023-02-09T17:55:05.862Z,-23178.13
2023-02-09T17:57:10.110Z,-23177.81
2023-02-09T17:59:13.429Z,-23177.00
2023-02-09T18:01:26.404Z,-23178.75
2023-02-09T18:03:30.753Z,-23178.44
2023-02-09T18:05:35.912Z,-23176.84
2023-02-09T18:07:38.680Z,-23174.63
2023-02-09T18:09:41.303Z,-23173.34
2023-02-09T18:12:02.023Z,-23171.59
2023-02-09T18:14:04.843Z,-23171.72
2023-02-09T18:16:07.843Z,-23171.41
2023-02-09T18:18:10.609Z,-23171.41
2023-02-09T18:20:18.789Z,-23173.66
2023-02-09T18:22:21.412Z,-23170.78
2023-02-09T18:24:26.997Z,-23167.59
2023-02-09T18:26:29.667Z,-23166.00
2023-02-09T18:28:32.490Z,-23165.66
2023-02-09T18:30:37.212Z,-23165.19
2023-02-09T18:32:39.855Z,-23163.75
2023-02-09T18:34:42.546Z,-23163.09
2023-02-09T18:36:46.516Z,-23158.31
2023-02-09T18:38:50.936Z,-23158.31
2023-02-09T18:40:53.604Z,-23156.25
2023-02-09T18:42:56.422Z,-23156.72
2023-02-09T18:44:59.117Z,-23158.00
2023-02-09T18:47:01.925Z,-23151.75
2023-02-09T18:49:05.018Z,-23150.31
2023-02-09T18:51:08.062Z,-23147.44
2023-02-09T18:53:12.955Z,-23151.28
2023-02-09T18:55:15.899Z,-23152.88
2023-02-09T18:57:18.756Z,-23152.25
2023-02-09T18:59:21.449Z,-23151.91
2023-02-09T19:01:25.204Z,-23150.47
2023-02-09T19:03:27.884Z,-23150.00
2023-02-09T19:05:32.933Z,-23148.56
2023-02-09T19:07:36.734Z,-23146.16
2023-02-09T19:09:42.874Z,-23146.66
2023-02-09T19:11:45.540Z,-23149.38
2023-02-09T19:14:08.718Z,-23147.44
2023-02-09T19:16:12.734Z,-23145.53
2023-02-09T19:18:15.469Z,-23147.13
2023-02-09T19:20:20.458Z,-23146.50
2023-02-09T19:22:23.542Z,-23147.28
2023-02-09T19:24:26.206Z,-23146.16
2023-02-09T19:26:30.173Z,-23146.50
2023-02-09T19:28:35.114Z,-23149.03
2023-02-09T19:30:37.954Z,-23147.13
2023-02-09T19:32:40.627Z,-23147.28
2023-02-09T19:34:45.833Z,-23149.03
2023-02-09T19:36:48.778Z,-23143.94
2023-02-09T19:38:51.477Z,-23144.72
2023-02-09T19:41:09.738Z,-23144.09
2023-02-09T19:43:14.676Z,-23144.25
2023-02-09T19:45:17.424Z,-23143.13
2023-02-09T19:47:25.530Z,-23142.50
2023-02-09T19:49:29.218Z,-23142.97
2023-02-09T19:51:32.212Z,-23143.28
2023-02-09T19:53:35.166Z,-23142.81
2023-02-09T19:55:37.830Z,-23142.50
2023-02-09T19:57:42.371Z,-23139.78
2023-02-09T19:59:46.532Z,-23139.78
2023-02-09T20:01:49.693Z,-23136.56
2023-02-09T20:03:52.437Z,-23140.56
2023-02-09T20:05:55.517Z,-23137.84
2023-02-09T20:07:58.431Z,-23142.00
2023-02-09T20:10:01.109Z,-23141.38
2023-02-09T20:12:03.908Z,-23140.09
2023-02-09T20:14:06.761Z,-23139.63
2023-02-09T20:16:12.794Z,-23141.06
2023-02-09T20:18:17.609Z,-23139.13
2023-02-09T20:20:21.008Z,-23138.19
2023-02-09T20:22:23.791Z,-23137.22
2023-02-09T20:24:26.599Z,-23139.63
2023-02-09T20:26:33.001Z,-23146.00
2023-02-09T20:28:35.671Z,-23150.31
2023-02-09T20:30:41.543Z,-23148.41
2023-02-09T20:32:45.580Z,-23142.16
2023-02-09T20:34:48.221Z,-23138.34
2023-02-09T20:36:50.875Z,-23138.19
2023-02-09T20:38:53.944Z,-23139.44
2023-02-09T20:40:56.709Z,-23139.44
2023-02-09T20:43:16.807Z,-23137.38
2023-02-09T20:45:37.171Z,-23139.44
2023-02-09T20:47:39.852Z,-23138.19
2023-02-09T20:49:44.208Z,-23131.31
2023-02-09T20:51:47.091Z,-23133.38
2023-02-09T20:53:49.670Z,-23135.94
2023-02-09T20:55:52.373Z,-23143.44
2023-02-09T20:57:54.976Z,-23143.94
2023-02-09T20:59:58.408Z,-23141.38
2023-02-09T21:02:01.109Z,-23141.06
2023-02-09T21:04:05.094Z,-23138.81
2023-02-09T21:06:10.102Z,-23140.09
2023-02-09T21:08:12.771Z,-23138.19
2023-02-09T21:10:16.014Z,-23135.47
2023-02-09T21:12:18.912Z,-23130.81
2023-02-09T21:14:27.872Z,-23128.25
2023-02-09T21:16:36.516Z,-23128.91
2023-02-09T21:18:40.206Z,-23129.22
2023-02-09T21:20:42.996Z,-23127.28
2023-02-09T21:22:46.984Z,-23130.19
2023-02-09T21:24:49.684Z,-23126.97
2023-02-09T21:26:52.732Z,-23125.84
2023-02-09T21:28:56.488Z,-23127.94
2023-02-09T21:30:59.569Z,-23127.47
2023-02-09T21:33:02.568Z,-23123.13
2023-02-09T21:35:10.053Z,-23124.09
2023-02-09T21:37:14.058Z,-23125.22
2023-02-09T21:39:18.230Z,-23125.69
2023-02-09T21:41:40.400Z,-23124.75
2023-02-09T21:43:43.381Z,-23126.81
2023-02-09T21:45:46.132Z,-23124.91
2023-02-09T21:47:48.855Z,-23125.53
2023-02-09T21:49:51.700Z,-23125.84
2023-02-09T21:51:54.411Z,-23127.28
2023-02-09T21:53:57.776Z,-23127.28
2023-02-09T21:56:01.859Z,-23124.91
2023-02-09T21:58:04.671Z,-23125.38
2023-02-09T22:00:09.732Z,-23129.84
2023-02-09T22:02:14.217Z,-23128.09
2023-02-09T22:04:17.041Z,-23126.66
2023-02-09T22:06:19.893Z,-23131.47
2023-02-09T22:08:22.591Z,-23128.41
2023-02-09T22:10:25.234Z,-23126.19
2023-02-09T22:12:29.993Z,-23125.38
2023-02-09T22:14:32.871Z,-23123.94
2023-02-09T22:16:35.589Z,-23123.94
2023-02-09T22:18:38.457Z,-23126.34
2023-02-09T22:20:41.483Z,-23126.97
2023-02-09T22:22:46.001Z,-23124.56
2023-02-09T22:24:48.793Z,-23125.06
2023-02-09T22:26:51.605Z,-23125.22
2023-02-09T22:28:55.607Z,-23124.09
2023-02-09T22:30:58.541Z,-23123.13
2023-02-09T22:33:02.000Z,-23124.09
2023-02-09T22:35:04.704Z,-23123.78
2023-02-09T22:37:07.595Z,-23125.69
2023-02-09T22:39:10.394Z,-23124.56
2023-02-09T22:41:21.429Z,-23124.25
2023-02-09T22:43:24.301Z,-23124.25
2023-02-09T22:45:28.442Z,-23124.09
2023-02-09T22:47:31.162Z,-23125.69
2023-02-09T22:49:34.095Z,-23124.91
2023-02-09T22:51:37.606Z,-23125.38
2023-02-09T22:53:40.333Z,-23125.69
2023-02-09T22:55:46.340Z,-23125.06
2023-02-09T22:57:49.180Z,-23125.06
2023-02-09T22:59:52.192Z,-23126.97
2023-02-09T23:01:56.320Z,-23125.22
2023-02-09T23:03:59.699Z,-23126.50
2023-02-09T23:06:03.455Z,-23125.53
2023-02-09T23:08:08.692Z,-23127.63
2023-02-09T23:10:11.340Z,-23129.22
2023-02-09T23:12:14.182Z,-23128.09
2023-02-09T23:14:16.860Z,-23126.97
2023-02-09T23:16:21.589Z,-23127.47
2023-02-09T23:18:25.721Z,-23127.13
2023-02-09T23:20:28.494Z,-23126.97
2023-02-09T23:22:31.809Z,-23128.56
2023-02-09T23:24:34.546Z,-23127.63
2023-02-09T23:26:38.177Z,-23125.38
2023-02-09T23:28:40.966Z,-23131.78
2023-02-09T23:30:45.030Z,-23129.38
2023-02-09T23:32:49.233Z,-23130.97
2023-02-09T23:34:53.360Z,-23131.47
2023-02-09T23:36:57.377Z,-23127.94
2023-02-09T23:39:04.953Z,-23126.66
2023-02-09T23:41:08.495Z,-23127.94
2023-02-09T23:43:11.213Z,-23126.66
2023-02-09T23:45:14.002Z,-23127.63
2023-02-09T23:47:16.696Z,-23127.13
2023-02-09T23:49:19.457Z,-23126.66
2023-02-09T23:51:26.554Z,-23130.19
2023-02-09T23:53:29.542Z,-23131.78
2023-02-09T23:55:32.256Z,-23129.22
2023-02-09T23:57:34.890Z,-23125.38
2023-02-09T23:59:37.498Z,-23125.06
